ASA62 PAJN-PASI
Flight info
| Callsign | ASA62 |
|---|---|
| Flight time | 0h 23m |
| Altitude | 17000 |
| Route | RODMN1 RODMN |
| Aircraft | B737/M-SDE2E3FGHIRWXY/LB1 |
Departure
| Time | 2026-04-16 18:52 |
|---|---|
| Airport | Juneau International Airport (PAJN) |
Arrival
| Time | 2026-04-16 19:16 |
|---|---|
| Airport | Sitka Rocky Gutierrez Airport (PASI) |
| Time | Latitude | Longitude | Altitude | Speed | Heading |
|---|---|---|---|---|---|
| 2026-04-16 18:37 | 58.35847 | -134.58429 | 32 ft | 0 kts | 48° |
| 2026-04-16 18:46 | 58.35834 | -134.58457 | 32 ft | 3 kts | 48° |
| 2026-04-16 18:46 | 58.35815 | -134.58488 | 31 ft | 4 kts | 20° |
| 2026-04-16 18:46 | 58.35790 | -134.58494 | 31 ft | 4 kts | 343° |
| 2026-04-16 18:47 | 58.35778 | -134.58486 | 33 ft | 1 kts | 338° |
| 2026-04-16 18:47 | 58.35778 | -134.58485 | 33 ft | 0 kts | 338° |
| 2026-04-16 18:49 | 58.35780 | -134.58488 | 33 ft | 1 kts | 336° |
| 2026-04-16 18:49 | 58.35800 | -134.58529 | 33 ft | 7 kts | 287° |
| 2026-04-16 18:49 | 58.35790 | -134.58614 | 32 ft | 7 kts | 218° |
| 2026-04-16 18:49 | 58.35757 | -134.58673 | 33 ft | 7 kts | 261° |
| 2026-04-16 18:50 | 58.35765 | -134.58765 | 33 ft | 8 kts | 285° |
| 2026-04-16 18:50 | 58.35780 | -134.58873 | 33 ft | 10 kts | 285° |
| 2026-04-16 18:50 | 58.35800 | -134.59018 | 33 ft | 13 kts | 285° |
| 2026-04-16 18:50 | 58.35825 | -134.59198 | 33 ft | 14 kts | 285° |
| 2026-04-16 18:51 | 58.35850 | -134.59379 | 33 ft | 14 kts | 285° |
| 2026-04-16 18:51 | 58.35873 | -134.59546 | 33 ft | 10 kts | 277° |
| 2026-04-16 18:51 | 58.35840 | -134.59650 | 33 ft | 10 kts | 205° |
| 2026-04-16 18:51 | 58.35780 | -134.59629 | 34 ft | 9 kts | 134° |
| 2026-04-16 18:52 | 58.35732 | -134.59329 | 34 ft | 65 kts | 105° |
| 2026-04-16 18:52 | 58.35536 | -134.57902 | 95 ft | 144 kts | 103° |
| 2026-04-16 18:52 | 58.35297 | -134.55953 | 944 ft | 154 kts | 100° |
| 2026-04-16 18:52 | 58.34985 | -134.53991 | 1781 ft | 160 kts | 133° |
| 2026-04-16 18:53 | 58.33943 | -134.53043 | 2115 ft | 184 kts | 182° |
| 2026-04-16 18:53 | 58.32697 | -134.53977 | 2395 ft | 210 kts | 223° |
| 2026-04-16 18:53 | 58.32017 | -134.56488 | 2995 ft | 220 kts | 266° |
| 2026-04-16 18:53 | 58.32421 | -134.59207 | 3753 ft | 220 kts | 303° |
| 2026-04-16 18:54 | 58.33323 | -134.61706 | 4127 ft | 241 kts | 304° |
| 2026-04-16 18:54 | 58.34094 | -134.64718 | 4574 ft | 263 kts | 278° |
| 2026-04-16 18:54 | 58.33833 | -134.68008 | 5849 ft | 251 kts | 244° |
| 2026-04-16 18:54 | 58.32756 | -134.70537 | 6743 ft | 253 kts | 218° |
| 2026-04-16 18:55 | 58.31193 | -134.72193 | 7545 ft | 261 kts | 207° |
| 2026-04-16 18:55 | 58.29501 | -134.73568 | 8375 ft | 267 kts | 205° |
| 2026-04-16 18:55 | 58.27755 | -134.74913 | 9265 ft | 273 kts | 206° |
| 2026-04-16 18:55 | 58.25975 | -134.76277 | 10178 ft | 279 kts | 206° |
| 2026-04-16 18:56 | 58.24118 | -134.77713 | 10684 ft | 300 kts | 207° |
| 2026-04-16 18:56 | 58.22103 | -134.79283 | 11096 ft | 321 kts | 206° |
| 2026-04-16 18:56 | 58.20008 | -134.80884 | 11902 ft | 327 kts | 206° |
| 2026-04-16 18:56 | 58.17872 | -134.82527 | 12682 ft | 336 kts | 207° |
| 2026-04-16 18:57 | 58.15685 | -134.84207 | 13549 ft | 341 kts | 207° |
| 2026-04-16 18:57 | 58.13505 | -134.85894 | 14388 ft | 346 kts | 208° |
| 2026-04-16 18:57 | 58.11283 | -134.87628 | 14810 ft | 344 kts | 208° |
| 2026-04-16 18:58 | 58.06865 | -134.91089 | 14976 ft | 344 kts | 208° |
| 2026-04-16 18:58 | 58.04652 | -134.92830 | 14980 ft | 346 kts | 209° |
| 2026-04-16 18:58 | 58.02425 | -134.94580 | 14989 ft | 347 kts | 209° |
| 2026-04-16 18:58 | 58.00195 | -134.96334 | 14992 ft | 348 kts | 209° |
| 2026-04-16 18:59 | 57.97956 | -134.98088 | 14990 ft | 348 kts | 208° |
| 2026-04-16 18:59 | 57.95717 | -134.99840 | 14996 ft | 347 kts | 209° |
| 2026-04-16 18:59 | 57.93509 | -135.01575 | 15000 ft | 346 kts | 208° |
| 2026-04-16 18:59 | 57.91313 | -135.03288 | 14981 ft | 336 kts | 209° |
| 2026-04-16 19:00 | 57.89169 | -135.04953 | 14984 ft | 332 kts | 209° |
| 2026-04-16 19:00 | 57.87035 | -135.06614 | 14993 ft | 332 kts | 209° |
| 2026-04-16 19:00 | 57.84894 | -135.08285 | 14994 ft | 333 kts | 209° |
| 2026-04-16 19:00 | 57.82750 | -135.09954 | 14997 ft | 333 kts | 209° |
| 2026-04-16 19:01 | 57.80610 | -135.11619 | 15000 ft | 334 kts | 209° |
| 2026-04-16 19:01 | 57.78462 | -135.13283 | 14983 ft | 333 kts | 209° |
| 2026-04-16 19:01 | 57.76353 | -135.14914 | 14702 ft | 331 kts | 209° |
| 2026-04-16 19:01 | 57.74246 | -135.16539 | 14408 ft | 326 kts | 209° |
| 2026-04-16 19:02 | 57.72171 | -135.18140 | 14039 ft | 321 kts | 209° |
| 2026-04-16 19:02 | 57.70110 | -135.19732 | 13570 ft | 319 kts | 209° |
| 2026-04-16 19:02 | 57.68057 | -135.21315 | 13089 ft | 317 kts | 208° |
| 2026-04-16 19:02 | 57.66031 | -135.22875 | 12671 ft | 313 kts | 208° |
| 2026-04-16 19:03 | 57.64087 | -135.24640 | 12095 ft | 308 kts | 220° |
| 2026-04-16 19:03 | 57.62939 | -135.26185 | 11769 ft | 305 kts | 223° |
| 2026-04-16 19:03 | 57.61253 | -135.28543 | 11312 ft | 302 kts | 222° |
| 2026-04-16 19:03 | 57.59576 | -135.30868 | 10845 ft | 299 kts | 222° |
| 2026-04-16 19:04 | 57.57380 | -135.33902 | 10284 ft | 295 kts | 222° |
| 2026-04-16 19:04 | 57.55754 | -135.36123 | 10141 ft | 283 kts | 221° |
| 2026-04-16 19:04 | 57.54190 | -135.38246 | 9975 ft | 273 kts | 222° |
| 2026-04-16 19:04 | 57.52654 | -135.40332 | 9611 ft | 272 kts | 221° |
| 2026-04-16 19:05 | 57.51643 | -135.41697 | 9356 ft | 271 kts | 220° |
| 2026-04-16 19:05 | 57.50123 | -135.43752 | 9020 ft | 268 kts | 220° |
| 2026-04-16 19:05 | 57.48621 | -135.45784 | 8662 ft | 266 kts | 220° |
| 2026-04-16 19:05 | 57.47132 | -135.47791 | 8319 ft | 262 kts | 219° |
| 2026-04-16 19:06 | 57.45661 | -135.49766 | 7967 ft | 260 kts | 219° |
| 2026-04-16 19:06 | 57.44199 | -135.51729 | 7637 ft | 259 kts | 219° |
| 2026-04-16 19:06 | 57.42739 | -135.53687 | 7303 ft | 258 kts | 218° |
| 2026-04-16 19:06 | 57.41285 | -135.55636 | 6948 ft | 258 kts | 218° |
| 2026-04-16 19:07 | 57.39834 | -135.57576 | 6628 ft | 256 kts | 218° |
| 2026-04-16 19:07 | 57.38435 | -135.59443 | 6519 ft | 245 kts | 217° |
| 2026-04-16 19:07 | 57.37088 | -135.61237 | 6487 ft | 232 kts | 218° |
| 2026-04-16 19:07 | 57.35730 | -135.62921 | 5886 ft | 243 kts | 206° |
| 2026-04-16 19:08 | 57.34062 | -135.63587 | 5524 ft | 246 kts | 188° |
| 2026-04-16 19:08 | 57.32358 | -135.63917 | 5157 ft | 247 kts | 188° |
| 2026-04-16 19:08 | 57.30651 | -135.64266 | 4804 ft | 246 kts | 188° |
| 2026-04-16 19:08 | 57.28963 | -135.64544 | 4609 ft | 236 kts | 187° |
| 2026-04-16 19:09 | 57.27357 | -135.64890 | 4465 ft | 230 kts | 189° |
| 2026-04-16 19:09 | 57.25788 | -135.65255 | 4367 ft | 222 kts | 189° |
| 2026-04-16 19:09 | 57.24306 | -135.65585 | 4265 ft | 207 kts | 189° |
| 2026-04-16 19:09 | 57.22924 | -135.65885 | 4159 ft | 193 kts | 189° |
| 2026-04-16 19:10 | 57.21661 | -135.66066 | 4092 ft | 181 kts | 175° |
| 2026-04-16 19:10 | 57.20564 | -135.64894 | 4018 ft | 191 kts | 133° |
| 2026-04-16 19:10 | 57.19663 | -135.63102 | 3896 ft | 188 kts | 141° |
| 2026-04-16 19:10 | 57.18728 | -135.61519 | 3692 ft | 179 kts | 140° |
| 2026-04-16 19:11 | 57.17848 | -135.59949 | 3455 ft | 172 kts | 139° |
| 2026-04-16 19:11 | 57.17018 | -135.58448 | 3242 ft | 163 kts | 139° |
| 2026-04-16 19:11 | 57.16224 | -135.57011 | 3046 ft | 155 kts | 139° |
| 2026-04-16 19:11 | 57.15479 | -135.55660 | 2846 ft | 146 kts | 139° |
| 2026-04-16 19:12 | 57.14747 | -135.54337 | 2660 ft | 148 kts | 139° |
| 2026-04-16 19:12 | 57.14029 | -135.53036 | 2463 ft | 143 kts | 139° |
| 2026-04-16 19:12 | 57.13342 | -135.51789 | 2271 ft | 135 kts | 140° |
| 2026-04-16 19:12 | 57.12676 | -135.50585 | 2118 ft | 135 kts | 139° |
| 2026-04-16 19:13 | 57.12025 | -135.49406 | 1918 ft | 130 kts | 137° |
| 2026-04-16 19:13 | 57.11389 | -135.48252 | 1722 ft | 131 kts | 137° |
| 2026-04-16 19:13 | 57.10760 | -135.47060 | 1596 ft | 129 kts | 135° |
| 2026-04-16 19:13 | 57.10106 | -135.45909 | 1430 ft | 130 kts | 136° |
| 2026-04-16 19:14 | 57.09459 | -135.44751 | 1307 ft | 129 kts | 135° |
| 2026-04-16 19:14 | 57.08815 | -135.43583 | 1085 ft | 131 kts | 137° |
| 2026-04-16 19:14 | 57.08164 | -135.42401 | 889 ft | 132 kts | 138° |
| 2026-04-16 19:14 | 57.07509 | -135.41229 | 710 ft | 131 kts | 137° |
| 2026-04-16 19:15 | 57.06874 | -135.40063 | 562 ft | 128 kts | 136° |
| 2026-04-16 19:15 | 57.06238 | -135.38909 | 379 ft | 129 kts | 136° |
| 2026-04-16 19:15 | 57.05608 | -135.37770 | 161 ft | 125 kts | 135° |
| 2026-04-16 19:15 | 57.05008 | -135.36689 | 32 ft | 111 kts | 136° |
| 2026-04-16 19:16 | 57.04566 | -135.35896 | 35 ft | 68 kts | 135° |
| 2026-04-16 19:16 | 57.04333 | -135.35476 | 34 ft | 26 kts | 135° |
| 2026-04-16 19:16 | 57.04293 | -135.35409 | 34 ft | 2 kts | 147° |
| 2026-04-16 19:16 | 57.04262 | -135.35389 | 36 ft | 3 kts | 146° |
| 2026-04-16 19:17 | 57.04295 | -135.35400 | 35 ft | 15 kts | 316° |
| 2026-04-16 19:17 | 57.04371 | -135.35547 | 34 ft | 16 kts | 313° |
| 2026-04-16 19:17 | 57.04447 | -135.35686 | 33 ft | 15 kts | 316° |
| 2026-04-16 19:17 | 57.04521 | -135.35815 | 35 ft | 14 kts | 315° |
| 2026-04-16 19:18 | 57.04589 | -135.35941 | 35 ft | 14 kts | 315° |
| 2026-04-16 19:18 | 57.04656 | -135.36063 | 36 ft | 13 kts | 315° |
| 2026-04-16 19:18 | 57.04720 | -135.36179 | 36 ft | 13 kts | 315° |
| 2026-04-16 19:18 | 57.04783 | -135.36289 | 36 ft | 12 kts | 326° |
| 2026-04-16 19:19 | 57.04868 | -135.36312 | 32 ft | 12 kts | 360° |
| 2026-04-16 19:19 | 57.04928 | -135.36318 | 33 ft | 7 kts | 349° |
| 2026-04-16 19:19 | 57.04980 | -135.36364 | 34 ft | 10 kts | 320° |
| 2026-04-16 19:19 | 57.05033 | -135.36458 | 33 ft | 11 kts | 315° |
| 2026-04-16 19:20 | 57.05085 | -135.36552 | 34 ft | 10 kts | 315° |
| 2026-04-16 19:20 | 57.05135 | -135.36643 | 33 ft | 10 kts | 316° |
| 2026-04-16 19:20 | 57.05184 | -135.36732 | 34 ft | 9 kts | 314° |
| 2026-04-16 19:20 | 57.05226 | -135.36806 | 32 ft | 7 kts | 317° |
| 2026-04-16 19:21 | 57.05263 | -135.36839 | 34 ft | 6 kts | 38° |
| 2026-04-16 19:21 | 57.05270 | -135.36793 | 33 ft | 1 kts | 45° |
| 2026-04-16 19:21 | 57.05276 | -135.36776 | 34 ft | 2 kts | 54° |
| 2026-04-16 19:21 | 57.05290 | -135.36747 | 34 ft | 3 kts | 47° |
| 2026-04-16 19:22 | 57.05300 | -135.36730 | 32 ft | 0 kts | 44° |